Time,TemperatureF,DewpointF,PressureIn,WindDirection,WindDirectionDegrees,WindSpeedMPH,WindSpeedGustMPH,Humidity,HourlyPrecipIn,Conditions,Clouds,dailyrainin,SoftwareType,DateUTC
2013-01-27 00:00:00,26.9,25.1,30.46,North,0,0.0,1.0,93,0.00,,,-99.99,WeatherLink 5.4,2013-01-27 05:00:00,
2013-01-27 00:30:00,26.6,24.6,30.47,North,-999,0.0,0.0,92,0.00,,,-99.99,WeatherLink 5.4,2013-01-27 05:30:00,
2013-01-27 01:00:00,26.3,24.3,30.47,North,-999,0.0,0.0,92,0.00,,,-99.99,WeatherLink 5.4,2013-01-27 06:00:00,
2013-01-27 01:30:00,26.3,24.3,30.47,North,-999,0.0,0.0,92,0.00,,,-99.99,WeatherLink 5.4,2013-01-27 06:30:00,
2013-01-27 02:00:00,26.0,24.0,30.48,North,-999,0.0,0.0,92,0.00,,,-99.99,WeatherLink 5.4,2013-01-27 07:00:00,
2013-01-27 02:30:00,25.1,23.1,30.50,North,-999,0.0,0.0,92,0.00,,,-99.99,WeatherLink 5.4,2013-01-27 07:30:00,
2013-01-27 03:00:00,24.8,22.5,30.50,North,-999,0.0,0.0,91,0.00,,,-99.99,WeatherLink 5.4,2013-01-27 08:00:00,
2013-01-27 03:30:00,24.5,22.2,30.50,North,-999,0.0,0.0,91,0.00,,,-99.99,WeatherLink 5.4,2013-01-27 08:30:00,
2013-01-27 04:00:00,24.1,21.9,30.50,North,-999,0.0,0.0,91,0.00,,,-99.99,WeatherLink 5.4,2013-01-27 09:00:00,
2013-01-27 04:30:00,23.8,21.3,30.51,North,0,0.0,1.0,90,0.00,,,-99.99,WeatherLink 5.4,2013-01-27 09:30:00,
2013-01-27 05:00:00,23.5,21.0,30.51,North,-999,0.0,0.0,90,0.00,,,-99.99,WeatherLink 5.4,2013-01-27 10:00:00,
2013-01-27 06:00:00,23.3,20.8,30.53,North,-999,0.0,0.0,90,0.00,,,-99.99,WeatherLink 5.4,2013-01-27 11:00:00,
2013-01-27 06:30:00,24.2,22.2,30.55,North,-999,0.0,0.0,92,0.00,,,-99.99,WeatherLink 5.4,2013-01-27 11:30:00,
2013-01-27 07:00:00,23.8,21.8,30.55,North,-999,0.0,0.0,92,0.00,,,-99.99,WeatherLink 5.4,2013-01-27 12:00:00,
2013-01-27 07:30:00,23.5,21.5,30.58,North,-999,0.0,0.0,92,0.00,,,-99.99,WeatherLink 5.4,2013-01-27 12:30:00,
2013-01-27 08:00:00,23.6,21.6,30.59,North,-999,0.0,0.0,92,0.00,,,-99.99,WeatherLink 5.4,2013-01-27 13:00:00,
2013-01-27 08:30:00,24.1,22.1,30.61,North,-999,0.0,0.0,92,0.00,,,-99.99,WeatherLink 5.4,2013-01-27 13:30:00,
2013-01-27 09:00:00,24.5,22.8,30.62,North,-999,0.0,0.0,93,0.00,,,-99.99,WeatherLink 5.4,2013-01-27 14:00:00,
2013-01-27 09:30:00,25.8,24.1,30.63,NE,45,0.0,1.0,93,0.00,,,-99.99,WeatherLink 5.4,2013-01-27 14:30:00,
2013-01-27 10:00:00,27.5,25.5,30.64,NE,45,0.0,2.0,92,0.00,,,-99.99,WeatherLink 5.4,2013-01-27 15:00:00,
2013-01-27 10:30:00,29.7,26.9,30.65,ENE,67,0.0,2.0,89,0.00,,,-99.99,WeatherLink 5.4,2013-01-27 15:30:00,
2013-01-27 11:00:00,32.2,26.1,30.65,ESE,112,0.0,1.0,78,0.00,,,-99.99,WeatherLink 5.4,2013-01-27 16:00:00,
2013-01-27 11:30:00,33.5,24.8,30.64,SE,135,0.0,3.0,70,0.01,,,-99.99,WeatherLink 5.4,2013-01-27 16:30:00,
2013-01-27 12:00:00,34.9,26.1,30.64,SE,135,0.0,3.0,70,0.01,,,-99.99,WeatherLink 5.4,2013-01-27 17:00:00,
2013-01-27 12:30:00,35.6,25.4,30.62,SSE,157,0.0,3.0,66,0.01,,,-99.99,WeatherLink 5.4,2013-01-27 17:30:00,
2013-01-27 13:00:00,37.0,26.3,30.59,West,270,0.0,3.0,65,0.02,,,-99.99,WeatherLink 5.4,2013-01-27 18:00:00,
2013-01-27 13:30:00,37.5,25.7,30.57,SE,135,0.0,3.0,62,0.01,,,-99.99,WeatherLink 5.4,2013-01-27 18:30:00,
2013-01-27 14:00:00,38.8,26.1,30.59,South,180,0.0,2.0,60,0.01,,,-99.99,WeatherLink 5.4,2013-01-27 19:00:00,
2013-01-27 14:30:00,39.1,24.7,30.58,SW,225,0.0,3.0,56,0.01,,,-99.99,WeatherLink 5.4,2013-01-27 19:30:00,
2013-01-27 15:00:00,38.8,24.9,30.57,SE,135,0.0,2.0,57,0.01,,,-99.99,WeatherLink 5.4,2013-01-27 20:00:00,
2013-01-27 15:30:00,39.1,25.6,30.57,SE,135,0.0,2.0,58,0.01,,,-99.99,WeatherLink 5.4,2013-01-27 20:30:00,
2013-01-27 16:00:00,38.9,24.9,30.57,North,-999,0.0,0.0,57,0.00,,,-99.99,WeatherLink 5.4,2013-01-27 21:00:00,
2013-01-27 16:30:00,38.9,24.9,30.56,North,-999,0.0,0.0,57,0.00,,,-99.99,WeatherLink 5.4,2013-01-27 21:30:00,
2013-01-27 17:00:00,38.8,25.3,30.57,North,-999,0.0,0.0,58,0.00,,,-99.99,WeatherLink 5.4,2013-01-27 22:00:00,
2013-01-27 17:30:00,38.6,25.5,30.59,North,-999,0.0,0.0,59,0.00,,,-99.99,WeatherLink 5.4,2013-01-27 22:30:00,
2013-01-27 18:00:00,37.8,25.5,30.59,North,-999,0.0,0.0,61,0.00,,,-99.99,WeatherLink 5.4,2013-01-27 23:00:00,
2013-01-27 18:30:00,37.0,25.9,30.58,North,-999,0.0,0.0,64,0.00,,,-99.99,WeatherLink 5.4,2013-01-27 23:30:00,
2013-01-27 19:00:00,36.3,26.4,30.58,North,-999,0.0,0.0,67,0.00,,,-99.99,WeatherLink 5.4,2013-01-28 00:00:00,
2013-01-27 19:30:00,36.0,26.1,30.58,North,-999,0.0,0.0,67,0.00,,,-99.99,WeatherLink 5.4,2013-01-28 00:30:00,
2013-01-27 20:00:00,34.7,25.9,30.56,North,-999,0.0,0.0,70,0.00,,,-99.99,WeatherLink 5.4,2013-01-28 01:00:00,
2013-01-27 20:30:00,34.3,26.2,30.57,North,-999,0.0,0.0,72,0.00,,,-99.99,WeatherLink 5.4,2013-01-28 01:30:00,
2013-01-27 21:00:00,33.4,26.0,30.58,North,-999,0.0,0.0,74,0.00,,,-99.99,WeatherLink 5.4,2013-01-28 02:00:00,
2013-01-27 21:30:00,32.5,25.8,30.56,North,-999,0.0,0.0,76,0.00,,,-99.99,WeatherLink 5.4,2013-01-28 02:30:00,
2013-01-27 22:00:00,32.4,26.0,30.58,North,-999,0.0,0.0,77,0.00,,,-99.99,WeatherLink 5.4,2013-01-28 03:00:00,
2013-01-27 22:30:00,32.8,26.4,30.57,SE,135,0.0,2.0,77,0.00,,,-99.99,WeatherLink 5.4,2013-01-28 03:30:00,
2013-01-27 23:00:00,32.7,26.3,30.56,North,-999,0.0,0.0,77,0.00,,,-99.99,WeatherLink 5.4,2013-01-28 04:00:00,
2013-01-27 23:30:00,31.9,25.8,30.56,North,-999,0.0,0.0,78,0.00,,,-99.99,WeatherLink 5.4,2013-01-28 04:30:00,